Time;durP1;ratioP1;P1;durP2;ratioP2;P2;SDS_P1;SDS_P2;PMS_P1;PMS_P2;Temp;Humidity;BMP_temperature;BMP_pressure;BME280_temperature;BME280_humidity;BME280_pressure;Samples;Min_cycle;Max_cycle;Signal;HPM_P1;HPM_P2
2023/08/24 00:01:37;;;;;;;733.13;653.47;;;;;;;;;;5023769;28;20133;-86
2023/08/24 00:04:04;;;;;;;735.00;654.08;;;;;;;;;;5021340;28;20556;-86
2023/08/24 00:06:31;;;;;;;762.45;665.65;;;;;;;;;;5018071;28;20037;-86
2023/08/24 00:08:59;;;;;;;729.95;649.25;;;;;;;;;;5027149;28;20053;-86
2023/08/24 00:11:25;;;;;;;736.10;651.03;;;;;;;;;;5013861;28;20065;-86
2023/08/24 00:13:53;;;;;;;752.85;668.70;;;;;;;;;;5023575;28;20485;-86
2023/08/24 00:16:20;;;;;;;751.58;670.22;;;;;;;;;;5017233;28;20046;-86
2023/08/24 00:18:47;;;;;;;742.05;662.67;;;;;;;;;;5025171;28;20042;-86
2023/08/24 00:21:16;;;;;;;753.25;670.78;;;;;;;;;;5019056;28;20431;-86
2023/08/24 00:23:44;;;;;;;746.67;664.88;;;;;;;;;;5025183;28;20076;-87
2023/08/24 00:26:10;;;;;;;741.97;661.00;;;;;;;;;;5029545;28;20137;-86
2023/08/24 00:28:37;;;;;;;751.35;671.45;;;;;;;;;;5029226;28;20057;-86
2023/08/24 00:31:04;;;;;;;746.55;667.78;;;;;;;;;;5025926;28;20037;-87
2023/08/24 00:33:31;;;;;;;743.78;663.20;;;;;;;;;;5001918;28;20049;-87
2023/08/24 00:36:01;;;;;;;750.03;665.72;;;;;;;;;;5026605;28;20396;-86
2023/08/24 00:38:28;;;;;;;752.17;672.13;;;;;;;;;;5019965;28;20041;-87
2023/08/24 00:40:58;;;;;;;747.08;666.22;;;;;;;;;;5026616;28;20048;-87
2023/08/24 00:43:25;;;;;;;741.63;657.67;;;;;;;;;;5025973;28;20137;-86
2023/08/24 00:45:53;;;;;;;737.50;657.45;;;;;;;;;;5026105;28;20099;-86
2023/08/24 00:48:25;;;;;;;751.92;671.28;;;;;;;;;;5026028;28;20397;-88
2023/08/24 00:50:54;;;;;;;743.50;659.53;;;;;;;;;;5027504;28;20443;-86
2023/08/24 00:53:21;;;;;;;744.42;662.42;;;;;;;;;;5026081;28;20049;-86
2023/08/24 00:55:47;;;;;;;743.85;662.88;;;;;;;;;;5019487;28;20084;-86
2023/08/24 00:58:14;;;;;;;738.50;657.17;;;;;;;;;;4979819;28;20697;-86
2023/08/24 01:00:41;;;;;;;738.28;658.95;;;;;;;;;;5025827;28;20037;-87
2023/08/24 01:03:07;;;;;;;742.05;661.20;;;;;;;;;;5052483;28;20045;-87
2023/08/24 01:05:34;;;;;;;749.30;656.15;;;;;;;;;;5035682;28;20069;-86
2023/08/24 01:08:02;;;;;;;732.13;652.25;;;;;;;;;;5052971;28;20033;-87
2023/08/24 01:10:44;;;;;;;728.13;649.97;;;;;;;;;;5045523;28;20409;-86
2023/08/24 01:13:12;;;;;;;723.05;645.58;;;;;;;;;;5028457;28;20061;-86
2023/08/24 01:15:48;;;;;;;718.92;641.97;;;;;;;;;;5027320;28;20041;-86
2023/08/24 01:18:16;;;;;;;723.78;644.67;;;;;;;;;;5018282;28;20041;-86
2023/08/24 01:20:43;;;;;;;792.50;659.10;;;;;;;;;;5020854;28;20037;-87
2023/08/24 01:23:22;;;;;;;729.17;649.00;;;;;;;;;;5024984;28;20080;-86
2023/08/24 01:25:52;;;;;;;720.10;640.50;;;;;;;;;;5021338;28;20065;-86
2023/08/24 01:28:23;;;;;;;714.83;636.42;;;;;;;;;;5027364;28;20119;-85
2023/08/24 01:30:50;;;;;;;740.25;659.17;;;;;;;;;;5012103;28;20053;-86
2023/08/24 01:33:16;;;;;;;739.13;643.88;;;;;;;;;;5029113;28;20700;-86
2023/08/24 01:35:43;;;;;;;763.90;651.03;;;;;;;;;;5030145;28;20125;-86
2023/08/24 01:38:12;;;;;;;729.97;639.38;;;;;;;;;;5030923;28;20037;-86
2023/08/24 01:41:03;;;;;;;714.38;636.25;;;;;;;;;;5028383;28;20073;-86
2023/08/24 01:43:33;;;;;;;736.00;642.97;;;;;;;;;;5017720;28;20049;-86
2023/08/24 01:46:11;;;;;;;711.53;633.42;;;;;;;;;;5028438;28;20037;-86
2023/08/24 01:48:38;;;;;;;729.22;649.83;;;;;;;;;;5027983;28;20052;-86
2023/08/24 01:51:05;;;;;;;744.38;650.35;;;;;;;;;;5026640;28;20099;-86
2023/08/24 01:53:32;;;;;;;736.83;653.00;;;;;;;;;;5027000;28;20053;-86
2023/08/24 01:55:58;;;;;;;742.22;649.42;;;;;;;;;;5029200;28;20512;-86
2023/08/24 01:58:25;;;;;;;723.58;643.78;;;;;;;;;;5016625;28;20520;-87
2023/08/24 02:01:00;;;;;;;836.80;675.45;;;;;;;;;;5061739;23;20046;-59
2023/08/24 02:03:26;;;;;;;760.30;664.10;;;;;;;;;;4969421;28;20658;-59
2023/08/24 02:05:53;;;;;;;722.33;642.75;;;;;;;;;;4990906;28;20129;-58
2023/08/24 02:08:19;;;;;;;729.10;649.70;;;;;;;;;;4991482;28;20050;-61
2023/08/24 02:10:46;;;;;;;737.75;644.22;;;;;;;;;;4989175;28;20508;-58
2023/08/24 02:13:12;;;;;;;729.67;648.47;;;;;;;;;;4989562;28;20046;-58
2023/08/24 02:15:39;;;;;;;721.83;643.13;;;;;;;;;;4991267;28;20042;-58
2023/08/24 02:18:06;;;;;;;744.88;649.17;;;;;;;;;;4973037;28;20042;-58
2023/08/24 02:20:37;;;;;;;732.15;651.70;;;;;;;;;;4978893;28;20061;-61
2023/08/24 02:23:04;;;;;;;735.35;641.63;;;;;;;;;;4989435;28;20045;-58
2023/08/24 02:25:31;;;;;;;719.97;640.22;;;;;;;;;;4990338;28;20053;-61
2023/08/24 02:27:57;;;;;;;716.75;637.78;;;;;;;;;;4984137;28;20404;-59
2023/08/24 02:30:24;;;;;;;713.67;635.03;;;;;;;;;;4988554;28;20084;-58
2023/08/24 02:32:51;;;;;;;781.28;667.50;;;;;;;;;;4988205;28;20149;-61
2023/08/24 02:35:18;;;;;;;727.17;647.25;;;;;;;;;;4994275;28;20050;-59
2023/08/24 02:37:45;;;;;;;717.47;639.42;;;;;;;;;;4990479;28;20081;-59
2023/08/24 02:40:11;;;;;;;722.90;641.40;;;;;;;;;;4990708;28;20044;-57
2023/08/24 02:42:38;;;;;;;709.15;628.03;;;;;;;;;;4982615;28;20042;-59
2023/08/24 02:45:05;;;;;;;729.97;645.53;;;;;;;;;;4990472;28;20399;-60
2023/08/24 02:47:32;;;;;;;733.75;651.53;;;;;;;;;;4990995;28;20057;-61
2023/08/24 02:50:00;;;;;;;728.80;649.85;;;;;;;;;;4990910;28;20539;-60
2023/08/24 02:52:26;;;;;;;727.00;647.45;;;;;;;;;;4966102;28;20484;-56
2023/08/24 02:54:53;;;;;;;752.25;662.42;;;;;;;;;;4989941;28;20045;-60
2023/08/24 02:57:19;;;;;;;734.05;653.08;;;;;;;;;;4989765;28;20478;-57
2023/08/24 02:59:46;;;;;;;750.90;650.45;;;;;;;;;;4988553;28;20423;-59
2023/08/24 03:02:13;;;;;;;723.28;643.85;;;;;;;;;;4990750;28;20085;-57
2023/08/24 03:04:39;;;;;;;735.08;654.85;;;;;;;;;;4989941;28;20049;-57
2023/08/24 03:07:07;;;;;;;722.83;643.95;;;;;;;;;;4990384;28;20038;-58
2023/08/24 03:09:34;;;;;;;725.05;640.55;;;;;;;;;;4972419;28;20121;-61
2023/08/24 03:12:01;;;;;;;729.88;649.90;;;;;;;;;;4980928;28;20108;-59
2023/08/24 03:14:28;;;;;;;743.15;661.30;;;;;;;;;;4987745;28;20046;-58
2023/08/24 03:16:54;;;;;;;725.35;642.20;;;;;;;;;;4969299;28;20149;-59
2023/08/24 03:19:21;;;;;;;715.78;635.70;;;;;;;;;;4962915;28;20042;-59
2023/08/24 03:21:47;;;;;;;727.10;643.42;;;;;;;;;;4988311;28;20125;-59
2023/08/24 03:24:15;;;;;;;724.70;637.03;;;;;;;;;;4980230;28;20141;-62
2023/08/24 03:26:41;;;;;;;743.90;638.33;;;;;;;;;;4989532;28;20046;-59
2023/08/24 03:29:08;;;;;;;721.78;639.65;;;;;;;;;;4990343;28;20049;-59
2023/08/24 03:31:34;;;;;;;736.92;636.05;;;;;;;;;;4989242;28;20051;-59
2023/08/24 03:34:03;;;;;;;726.28;639.80;;;;;;;;;;4987734;28;20089;-56
2023/08/24 03:36:30;;;;;;;733.65;638.70;;;;;;;;;;4988996;28;20053;-61
2023/08/24 03:38:57;;;;;;;731.13;636.00;;;;;;;;;;4988137;28;20653;-59
2023/08/24 03:41:24;;;;;;;738.83;648.40;;;;;;;;;;4990513;28;20034;-58
2023/08/24 03:43:50;;;;;;;724.58;638.20;;;;;;;;;;4988933;28;20050;-59
2023/08/24 03:46:17;;;;;;;758.72;644.63;;;;;;;;;;4989109;28;20125;-60
2023/08/24 03:48:45;;;;;;;726.50;638.25;;;;;;;;;;4971327;28;20057;-59
2023/08/24 03:51:12;;;;;;;726.10;636.30;;;;;;;;;;4988166;28;20535;-58
2023/08/24 03:53:39;;;;;;;768.58;642.38;;;;;;;;;;4971734;28;20153;-59
2023/08/24 03:56:06;;;;;;;754.10;630.92;;;;;;;;;;4988246;28;20049;-61
2023/08/24 03:58:33;;;;;;;720.28;633.72;;;;;;;;;;4989561;28;20105;-59
2023/08/24 04:01:03;;;;;;;722.65;627.55;;;;;;;;;;4980593;28;20045;-59
2023/08/24 04:03:30;;;;;;;728.35;637.03;;;;;;;;;;4964210;28;20054;-61
2023/08/24 04:05:56;;;;;;;729.15;632.72;;;;;;;;;;4987133;28;20050;-56
2023/08/24 04:08:23;;;;;;;733.45;637.30;;;;;;;;;;4989973;28;20108;-60
2023/08/24 04:10:50;;;;;;;716.92;632.28;;;;;;;;;;4987602;28;20050;-59
2023/08/24 04:13:16;;;;;;;719.03;633.45;;;;;;;;;;4987116;28;20050;-60
2023/08/24 04:15:43;;;;;;;715.63;636.72;;;;;;;;;;4989354;28;20489;-58
2023/08/24 04:18:11;;;;;;;764.00;648.70;;;;;;;;;;4970990;28;20054;-60
2023/08/24 04:20:37;;;;;;;743.70;646.88;;;;;;;;;;4981645;28;20052;-58
2023/08/24 04:23:04;;;;;;;733.47;642.13;;;;;;;;;;4989429;28;20054;-61
2023/08/24 04:25:33;;;;;;;733.88;637.78;;;;;;;;;;4988786;28;20466;-58
2023/08/24 04:28:00;;;;;;;745.00;646.22;;;;;;;;;;4989002;28;20053;-59
2023/08/24 04:30:26;;;;;;;743.13;661.53;;;;;;;;;;4988659;28;20047;-60
2023/08/24 04:32:53;;;;;;;763.40;669.45;;;;;;;;;;4991446;28;20604;-56
2023/08/24 04:35:20;;;;;;;749.42;669.47;;;;;;;;;;4989468;28;20257;-59
2023/08/24 04:37:46;;;;;;;751.10;666.75;;;;;;;;;;4989849;28;20050;-58
2023/08/24 04:40:14;;;;;;;737.45;657.83;;;;;;;;;;4989225;28;20045;-55
2023/08/24 04:42:40;;;;;;;745.95;666.05;;;;;;;;;;4989002;28;20078;-56
2023/08/24 04:45:07;;;;;;;758.83;678.30;;;;;;;;;;4988585;28;20085;-58
2023/08/24 04:47:34;;;;;;;790.22;706.78;;;;;;;;;;4990397;28;20069;-60
2023/08/24 04:50:00;;;;;;;788.65;706.35;;;;;;;;;;4992544;28;20117;-58
2023/08/24 04:52:28;;;;;;;807.40;724.38;;;;;;;;;;4992510;28;20116;-59
2023/08/24 04:54:54;;;;;;;806.47;723.22;;;;;;;;;;4992370;28;20423;-56
2023/08/24 04:57:21;;;;;;;814.72;730.47;;;;;;;;;;4991969;28;20066;-59
2023/08/24 04:59:50;;;;;;;860.63;771.13;;;;;;;;;;4992522;28;20042;-59
2023/08/24 05:02:17;;;;;;;855.70;771.45;;;;;;;;;;4993570;28;20496;-60
2023/08/24 05:04:44;;;;;;;891.67;805.78;;;;;;;;;;4992070;28;20046;-60
2023/08/24 05:07:10;;;;;;;955.47;863.58;;;;;;;;;;4991954;28;20058;-58
2023/08/24 05:09:37;;;;;;;982.25;886.83;;;;;;;;;;4990546;28;20074;-59
2023/08/24 05:12:03;;;;;;;1008.05;913.25;;;;;;;;;;4991165;28;20042;-54
2023/08/24 05:14:32;;;;;;;1027.50;933.95;;;;;;;;;;4990025;28;20045;-60
2023/08/24 05:16:58;;;;;;;1041.18;943.55;;;;;;;;;;4990937;28;20054;-57
2023/08/24 05:19:25;;;;;;;1055.22;950.47;;;;;;;;;;4990154;28;20050;-58
2023/08/24 05:21:54;;;;;;;1045.75;950.53;;;;;;;;;;4990468;28;20058;-61
2023/08/24 05:24:21;;;;;;;1056.72;961.08;;;;;;;;;;4991962;28;20129;-59
2023/08/24 05:26:47;;;;;;;1058.32;961.05;;;;;;;;;;4992459;28;20132;-58
2023/08/24 05:29:14;;;;;;;1051.18;957.83;;;;;;;;;;4991897;28;20083;-52
2023/08/24 05:31:40;;;;;;;1062.75;965.88;;;;;;;;;;4992095;28;20051;-53
2023/08/24 05:34:07;;;;;;;1067.25;972.22;;;;;;;;;;4990497;28;20109;-56
2023/08/24 05:36:33;;;;;;;1078.57;983.38;;;;;;;;;;4992006;28;20040;-49
2023/08/24 05:39:00;;;;;;;1095.45;995.83;;;;;;;;;;4991903;28;20050;-58
2023/08/24 05:41:32;;;;;;;1106.55;999.90;;;;;;;;;;4991913;28;20060;-58
2023/08/24 05:43:59;;;;;;;1106.10;999.90;;;;;;;;;;4968461;28;20045;-52
2023/08/24 05:46:26;;;;;;;1111.45;999.90;;;;;;;;;;4990043;28;20138;-58
2023/08/24 05:48:52;;;;;;;1108.10;999.90;;;;;;;;;;4989557;28;20479;-58
2023/08/24 05:51:19;;;;;;;1111.75;999.90;;;;;;;;;;4991764;28;20047;-59
2023/08/24 05:53:45;;;;;;;1127.80;999.90;;;;;;;;;;4991624;28;20108;-58
2023/08/24 05:56:12;;;;;;;1104.00;999.90;;;;;;;;;;4990889;28;20050;-55
2023/08/24 05:58:39;;;;;;;1111.85;999.90;;;;;;;;;;4989351;28;20073;-57
2023/08/24 06:01:05;;;;;;;1123.70;999.90;;;;;;;;;;4991473;28;20046;-59
2023/08/24 06:03:32;;;;;;;1134.03;999.90;;;;;;;;;;4989778;28;20038;-55
2023/08/24 06:06:05;;;;;;;1131.88;999.90;;;;;;;;;;4991543;28;20049;-59
2023/08/24 06:08:32;;;;;;;1137.53;999.90;;;;;;;;;;4991058;28;20146;-59
2023/08/24 06:10:58;;;;;;;1141.82;999.90;;;;;;;;;;4991230;28;20042;-60
2023/08/24 06:13:25;;;;;;;1157.65;999.90;;;;;;;;;;4991268;28;20125;-60
2023/08/24 06:15:54;;;;;;;1172.22;999.90;;;;;;;;;;4989643;28;20038;-58
2023/08/24 06:18:20;;;;;;;1174.30;999.90;;;;;;;;;;4966633;28;20058;-58
2023/08/24 06:20:50;;;;;;;1198.63;999.90;;;;;;;;;;4989705;28;20053;-60
2023/08/24 06:23:17;;;;;;;1198.85;999.90;;;;;;;;;;4981143;28;20551;-60
2023/08/24 06:25:43;;;;;;;1194.15;999.90;;;;;;;;;;4987178;28;20144;-60
2023/08/24 06:28:10;;;;;;;1192.60;999.90;;;;;;;;;;4989708;28;20129;-58
2023/08/24 06:30:40;;;;;;;1197.50;999.90;;;;;;;;;;4989158;28;20034;-59
2023/08/24 06:33:07;;;;;;;1189.55;999.90;;;;;;;;;;4990618;28;20054;-58
2023/08/24 06:35:34;;;;;;;1197.18;999.90;;;;;;;;;;4993843;28;20038;-50
2023/08/24 06:38:01;;;;;;;1198.65;999.90;;;;;;;;;;4992881;28;20262;-59
2023/08/24 06:40:28;;;;;;;1200.95;999.90;;;;;;;;;;4992543;28;20057;-59
2023/08/24 06:42:55;;;;;;;1209.22;999.90;;;;;;;;;;4992320;28;20574;-58
2023/08/24 06:45:21;;;;;;;1209.60;999.90;;;;;;;;;;4988120;28;20454;-58
2023/08/24 06:47:48;;;;;;;1205.05;999.90;;;;;;;;;;4992233;28;20629;-59
2023/08/24 06:50:15;;;;;;;1194.95;999.90;;;;;;;;;;4991375;28;20468;-60
2023/08/24 06:52:42;;;;;;;1196.47;999.90;;;;;;;;;;4990754;28;20432;-58
2023/08/24 06:55:10;;;;;;;1196.40;999.90;;;;;;;;;;4992521;28;20049;-55
2023/08/24 06:57:36;;;;;;;1189.53;999.90;;;;;;;;;;4975971;28;20065;-59
2023/08/24 07:00:07;;;;;;;1195.78;999.90;;;;;;;;;;4992146;28;20637;-57
2023/08/24 07:02:34;;;;;;;1191.28;999.90;;;;;;;;;;4991530;28;20113;-58
2023/08/24 07:05:04;;;;;;;1199.38;999.90;;;;;;;;;;4982763;28;20046;-60
2023/08/24 07:07:31;;;;;;;1202.65;999.90;;;;;;;;;;4965566;28;20042;-54
2023/08/24 07:09:57;;;;;;;1202.50;999.90;;;;;;;;;;4991649;28;20393;-58
2023/08/24 07:12:24;;;;;;;1184.25;999.90;;;;;;;;;;4990418;28;20051;-58
2023/08/24 07:14:51;;;;;;;1206.65;999.90;;;;;;;;;;4990695;28;20057;-58
2023/08/24 07:17:18;;;;;;;1210.55;999.90;;;;;;;;;;4992820;28;20042;-58
2023/08/24 07:19:44;;;;;;;1198.88;999.90;;;;;;;;;;4991789;28;20492;-58
2023/08/24 07:22:11;;;;;;;1186.22;999.90;;;;;;;;;;4991691;28;20053;-59
2023/08/24 07:24:37;;;;;;;1188.85;999.90;;;;;;;;;;4992027;28;20054;-59
2023/08/24 07:27:12;;;;;;;1190.78;999.90;;;;;;;;;;4990343;28;20380;-54
2023/08/24 07:29:38;;;;;;;1200.15;999.90;;;;;;;;;;4980795;28;20057;-60
2023/08/24 07:32:05;;;;;;;1203.20;999.90;;;;;;;;;;4992367;28;20057;-59
2023/08/24 07:34:32;;;;;;;1201.80;999.90;;;;;;;;;;4989450;28;20566;-60
2023/08/24 07:36:58;;;;;;;1200.00;999.90;;;;;;;;;;4991678;28;20038;-61
2023/08/24 07:39:25;;;;;;;1200.85;999.90;;;;;;;;;;4991547;28;20447;-60
2023/08/24 07:41:52;;;;;;;1202.15;999.90;;;;;;;;;;4991324;28;20050;-58
2023/08/24 07:44:19;;;;;;;1181.50;999.90;;;;;;;;;;4992303;28;20054;-60
2023/08/24 07:46:46;;;;;;;1181.57;999.90;;;;;;;;;;4990093;28;20057;-59
2023/08/24 07:49:13;;;;;;;1168.75;999.90;;;;;;;;;;4981495;28;20439;-59
2023/08/24 07:51:39;;;;;;;1167.40;999.90;;;;;;;;;;4967507;28;20034;-58
2023/08/24 07:54:06;;;;;;;1165.95;999.90;;;;;;;;;;4982016;28;20484;-58
2023/08/24 07:56:33;;;;;;;1161.75;999.90;;;;;;;;;;4982967;28;20052;-56
2023/08/24 07:59:00;;;;;;;1154.38;999.90;;;;;;;;;;4990101;28;20052;-59
2023/08/24 08:01:27;;;;;;;1147.68;999.90;;;;;;;;;;4989814;28;20582;-59
2023/08/24 08:03:55;;;;;;;1155.80;999.90;;;;;;;;;;4991401;28;20125;-59
2023/08/24 08:06:24;;;;;;;1148.28;999.90;;;;;;;;;;4989341;28;20042;-59
2023/08/24 08:08:51;;;;;;;1156.70;999.90;;;;;;;;;;4991454;28;20050;-58
2023/08/24 08:11:18;;;;;;;1139.63;999.90;;;;;;;;;;4991877;28;20487;-58
2023/08/24 08:13:45;;;;;;;1150.65;999.90;;;;;;;;;;4962854;28;20408;-59
2023/08/24 08:16:11;;;;;;;1155.10;999.90;;;;;;;;;;4991170;28;20500;-57
2023/08/24 08:18:39;;;;;;;1143.78;999.90;;;;;;;;;;4989416;28;20419;-57
2023/08/24 08:21:09;;;;;;;1134.00;999.90;;;;;;;;;;4989218;28;20133;-61
2023/08/24 08:23:36;;;;;;;1129.22;999.90;;;;;;;;;;4986491;28;20055;-65
2023/08/24 08:26:03;;;;;;;1126.78;999.90;;;;;;;;;;4986116;28;20621;-59
2023/08/24 08:28:29;;;;;;;1123.25;999.90;;;;;;;;;;4991104;28;20066;-57
2023/08/24 08:30:56;;;;;;;1118.18;999.90;;;;;;;;;;4986989;28;20034;-59
2023/08/24 08:33:24;;;;;;;1121.38;999.90;;;;;;;;;;4969637;28;20768;-58
2023/08/24 08:35:50;;;;;;;1134.25;999.90;;;;;;;;;;4973783;28;20046;-59
2023/08/24 08:38:17;;;;;;;1118.68;999.90;;;;;;;;;;4992100;28;20536;-60
2023/08/24 08:40:45;;;;;;;1116.75;999.90;;;;;;;;;;4989716;28;20061;-60
2023/08/24 08:43:12;;;;;;;1121.07;999.90;;;;;;;;;;4990675;28;20046;-55
2023/08/24 08:45:38;;;;;;;1112.80;999.90;;;;;;;;;;4991005;28;20042;-59
2023/08/24 08:48:05;;;;;;;1115.32;999.90;;;;;;;;;;4987295;28;20053;-60
2023/08/24 08:50:34;;;;;;;1119.18;999.90;;;;;;;;;;4993040;28;20170;-58
2023/08/24 08:53:02;;;;;;;1127.10;999.90;;;;;;;;;;4999214;28;20044;-59
2023/08/24 08:55:29;;;;;;;1135.90;999.90;;;;;;;;;;4991998;28;20048;-61
2023/08/24 08:57:58;;;;;;;1130.75;999.90;;;;;;;;;;4984403;28;20145;-60
2023/08/24 09:00:25;;;;;;;1132.72;999.90;;;;;;;;;;4987094;28;20038;-60
2023/08/24 09:02:52;;;;;;;1143.10;999.90;;;;;;;;;;4990555;28;20061;-58
2023/08/24 09:05:20;;;;;;;1130.90;999.90;;;;;;;;;;4996600;28;20057;-62
2023/08/24 09:07:47;;;;;;;1139.28;999.90;;;;;;;;;;4970984;28;20510;-59
2023/08/24 09:10:14;;;;;;;1140.93;999.90;;;;;;;;;;4997346;28;20130;-56
2023/08/24 09:12:41;;;;;;;1123.63;999.90;;;;;;;;;;4996847;28;20037;-60
2023/08/24 09:15:08;;;;;;;1128.93;999.90;;;;;;;;;;4990433;28;20042;-61
2023/08/24 09:17:35;;;;;;;1121.03;999.90;;;;;;;;;;4988145;28;20054;-60
2023/08/24 09:20:07;;;;;;;1119.38;999.90;;;;;;;;;;4990328;28;20514;-57
2023/08/24 09:22:37;;;;;;;1116.97;999.90;;;;;;;;;;4964052;28;20054;-56
2023/08/24 09:25:06;;;;;;;1122.05;999.90;;;;;;;;;;4965047;28;20378;-58
2023/08/24 09:27:34;;;;;;;1116.97;999.90;;;;;;;;;;4965400;28;20072;-58
2023/08/24 09:30:00;;;;;;;1121.82;999.90;;;;;;;;;;4990234;28;20535;-58
2023/08/24 09:32:28;;;;;;;1115.47;999.90;;;;;;;;;;4991439;28;20046;-59
2023/08/24 09:34:55;;;;;;;1112.88;999.90;;;;;;;;;;4968799;28;20046;-59
2023/08/24 09:37:22;;;;;;;1101.47;999.42;;;;;;;;;;4994131;28;20053;-59
2023/08/24 09:39:48;;;;;;;1102.07;999.40;;;;;;;;;;4992297;28;20427;-57
2023/08/24 09:42:24;;;;;;;1104.18;999.53;;;;;;;;;;4992386;28;20058;-62
2023/08/24 09:44:54;;;;;;;1111.75;999.90;;;;;;;;;;4958421;28;20090;-58
2023/08/24 09:47:21;;;;;;;1099.75;998.95;;;;;;;;;;5000974;28;20046;-56
2023/08/24 09:49:48;;;;;;;1109.05;999.90;;;;;;;;;;4993191;28;20418;-59
2023/08/24 09:52:15;;;;;;;1104.68;999.67;;;;;;;;;;4993629;28;20387;-58
2023/08/24 09:54:43;;;;;;;1106.35;999.90;;;;;;;;;;4993271;28;20137;-59
2023/08/24 09:57:10;;;;;;;1111.30;999.90;;;;;;;;;;4990910;28;20068;-58
2023/08/24 09:59:39;;;;;;;1104.10;999.90;;;;;;;;;;4993251;28;20720;-59
2023/08/24 10:02:14;;;;;;;1106.90;999.90;;;;;;;;;;4991172;28;20109;-60
2023/08/24 10:04:42;;;;;;;1108.57;999.90;;;;;;;;;;4992941;28;20054;-61
2023/08/24 10:07:15;;;;;;;1109.97;999.90;;;;;;;;;;4984569;28;20105;-58
2023/08/24 10:09:59;;;;;;;1116.95;999.90;;;;;;;;;;4991844;28;20046;-59
2023/08/24 10:12:35;;;;;;;1117.25;999.90;;;;;;;;;;4959162;28;20046;-59
2023/08/24 10:15:03;;;;;;;1109.50;999.90;;;;;;;;;;4991943;28;20058;-57
2023/08/24 10:17:32;;;;;;;1104.47;999.90;;;;;;;;;;4977203;28;20046;-58
2023/08/24 10:20:01;;;;;;;1109.70;999.90;;;;;;;;;;4993493;28;20496;-56
2023/08/24 10:22:28;;;;;;;1108.82;999.90;;;;;;;;;;4983982;28;20046;-58
2023/08/24 10:24:55;;;;;;;1118.20;999.90;;;;;;;;;;5001079;28;20077;-58
2023/08/24 10:27:23;;;;;;;1117.07;999.90;;;;;;;;;;4988145;28;20556;-59
2023/08/24 10:29:49;;;;;;;1129.35;999.90;;;;;;;;;;4989721;28;20053;-58
2023/08/24 10:32:17;;;;;;;1115.00;999.90;;;;;;;;;;4993891;28;20496;-58
2023/08/24 10:34:43;;;;;;;1111.53;999.90;;;;;;;;;;4972246;28;20208;-61
2023/08/24 10:37:11;;;;;;;1115.32;999.90;;;;;;;;;;4992634;28;20484;-60
2023/08/24 10:39:43;;;;;;;1113.28;999.90;;;;;;;;;;4991497;28;20117;-59
2023/08/24 10:42:13;;;;;;;1099.43;999.77;;;;;;;;;;4992728;28;20451;-62
2023/08/24 10:44:40;;;;;;;1105.40;999.88;;;;;;;;;;4992577;28;20276;-62
2023/08/24 10:47:07;;;;;;;1111.82;999.90;;;;;;;;;;4989255;28;20129;-60
2023/08/24 10:49:34;;;;;;;1110.82;999.90;;;;;;;;;;4992364;28;20141;-59
2023/08/24 10:52:30;;;;;;;1118.03;999.90;;;;;;;;;;4984530;28;20563;-57
2023/08/24 10:54:57;;;;;;;1124.22;999.90;;;;;;;;;;4969067;28;20539;-58
2023/08/24 10:57:24;;;;;;;1116.53;999.90;;;;;;;;;;4991997;28;20050;-58
2023/08/24 10:59:59;;;;;;;1144.75;999.90;;;;;;;;;;4966937;28;20146;-55
2023/08/24 11:02:26;;;;;;;1116.15;999.90;;;;;;;;;;4991891;28;20154;-57
2023/08/24 11:05:03;;;;;;;1118.93;999.90;;;;;;;;;;4991884;28;20042;-57
2023/08/24 11:07:30;;;;;;;1109.28;999.90;;;;;;;;;;4989097;28;20046;-55
2023/08/24 11:09:56;;;;;;;1106.47;999.90;;;;;;;;;;4987275;28;20698;-59
2023/08/24 11:12:23;;;;;;;1111.53;999.90;;;;;;;;;;4988114;28;20047;-58
2023/08/24 11:15:00;;;;;;;1102.47;999.22;;;;;;;;;;4989918;28;20120;-57
2023/08/24 11:17:29;;;;;;;1106.60;999.90;;;;;;;;;;4991045;28;20050;-58
2023/08/24 11:19:56;;;;;;;1104.20;999.67;;;;;;;;;;4992095;28;20058;-57
2023/08/24 11:22:23;;;;;;;1111.20;999.90;;;;;;;;;;4992530;28;20042;-55
2023/08/24 11:24:49;;;;;;;1106.22;999.90;;;;;;;;;;4990702;28;20077;-58
2023/08/24 11:27:16;;;;;;;1113.40;999.90;;;;;;;;;;4991959;28;20105;-59
2023/08/24 11:29:43;;;;;;;1121.00;999.90;;;;;;;;;;4990994;28;20467;-58
2023/08/24 11:32:09;;;;;;;1118.25;999.90;;;;;;;;;;4992702;28;20054;-51
2023/08/24 11:34:37;;;;;;;1123.40;999.90;;;;;;;;;;4989957;28;20056;-58
2023/08/24 11:37:03;;;;;;;1129.32;999.90;;;;;;;;;;4974540;28;20101;-51
2023/08/24 11:39:32;;;;;;;1127.65;999.90;;;;;;;;;;4990444;28;20043;-58
2023/08/24 11:41:59;;;;;;;1131.75;999.90;;;;;;;;;;4966479;28;20046;-51
2023/08/24 11:44:25;;;;;;;1128.00;999.90;;;;;;;;;;4992676;28;20522;-58
2023/08/24 11:46:58;;;;;;;1118.80;999.90;;;;;;;;;;4990150;28;20191;-58
2023/08/24 11:49:26;;;;;;;1118.90;999.90;;;;;;;;;;4991602;28;20423;-58
2023/08/24 11:51:53;;;;;;;1111.00;999.90;;;;;;;;;;4991366;28;20046;-56
2023/08/24 11:54:21;;;;;;;1111.57;999.90;;;;;;;;;;4973935;28;20093;-53
2023/08/24 11:56:47;;;;;;;1115.15;999.90;;;;;;;;;;4988618;28;20506;-59
2023/08/24 11:59:14;;;;;;;1103.80;999.55;;;;;;;;;;4990672;28;20060;-57
2023/08/24 12:01:42;;;;;;;1105.10;999.90;;;;;;;;;;4991226;28;20054;-57
2023/08/24 12:04:09;;;;;;;1101.05;999.70;;;;;;;;;;4990848;28;20046;-51
2023/08/24 12:06:36;;;;;;;1101.88;999.45;;;;;;;;;;4990112;28;20038;-58
2023/08/24 12:09:05;;;;;;;1101.57;998.85;;;;;;;;;;4988969;28;20047;-50
2023/08/24 12:11:35;;;;;;;1096.15;997.40;;;;;;;;;;4992500;28;20043;-59
2023/08/24 12:14:01;;;;;;;1096.68;998.00;;;;;;;;;;4972783;28;20078;-57
2023/08/24 12:16:32;;;;;;;1168.95;999.90;;;;;;;;;;4984678;28;20042;-59
2023/08/24 12:19:02;;;;;;;1250.00;999.90;;;;;;;;;;4993114;28;20058;-57
2023/08/24 12:21:30;;;;;;;1161.35;999.90;;;;;;;;;;4969852;28;20045;-61
2023/08/24 12:24:05;;;;;;;1133.30;999.90;;;;;;;;;;4988719;28;20124;-59
2023/08/24 12:26:34;;;;;;;1148.35;999.90;;;;;;;;;;4991093;28;20049;-57
2023/08/24 12:29:03;;;;;;;1084.13;988.28;;;;;;;;;;4993923;28;20038;-59
2023/08/24 12:31:30;;;;;;;1088.63;988.70;;;;;;;;;;4990675;28;20057;-59
2023/08/24 12:33:59;;;;;;;1083.28;985.45;;;;;;;;;;4990851;28;20505;-59
2023/08/24 12:36:27;;;;;;;1061.22;953.78;;;;;;;;;;4990280;28;20069;-56
2023/08/24 12:38:59;;;;;;;1081.70;971.92;;;;;;;;;;4991458;28;20045;-58
2023/08/24 12:41:27;;;;;;;1112.35;999.90;;;;;;;;;;4988376;28;20054;-59
2023/08/24 12:44:04;;;;;;;1116.32;999.90;;;;;;;;;;4993069;28;20041;-57
2023/08/24 12:46:32;;;;;;;1084.87;986.87;;;;;;;;;;4990216;28;20479;-52
2023/08/24 12:48:59;;;;;;;1113.40;999.90;;;;;;;;;;4989485;28;20046;-57
2023/08/24 12:51:26;;;;;;;1109.90;999.90;;;;;;;;;;4990977;28;20050;-60
2023/08/24 12:53:53;;;;;;;1115.30;999.90;;;;;;;;;;4965315;28;20109;-58
2023/08/24 12:56:20;;;;;;;1109.88;999.90;;;;;;;;;;4989970;28;20042;-55
2023/08/24 12:58:47;;;;;;;1120.05;999.90;;;;;;;;;;4992753;28;20058;-61
2023/08/24 13:01:14;;;;;;;1112.25;999.90;;;;;;;;;;4991813;28;20046;-59
2023/08/24 13:03:40;;;;;;;1108.78;999.90;;;;;;;;;;4991379;28;20038;-57
2023/08/24 13:06:07;;;;;;;1110.15;999.90;;;;;;;;;;4965885;28;20057;-59
2023/08/24 13:08:50;;;;;;;1116.93;999.90;;;;;;;;;;4995053;28;20038;-54
2023/08/24 13:11:16;;;;;;;1111.35;999.90;;;;;;;;;;4994944;28;20388;-55
2023/08/24 13:13:45;;;;;;;1111.78;999.90;;;;;;;;;;4990502;28;20563;-57
2023/08/24 13:16:12;;;;;;;1117.13;999.90;;;;;;;;;;4993292;28;20550;-58
2023/08/24 13:18:39;;;;;;;1124.00;999.90;;;;;;;;;;5000147;28;20129;-56
2023/08/24 13:21:06;;;;;;;1120.03;999.90;;;;;;;;;;4997955;28;20050;-58
2023/08/24 13:23:33;;;;;;;1131.40;999.90;;;;;;;;;;4996682;28;20049;-57
2023/08/24 13:26:01;;;;;;;1129.38;999.90;;;;;;;;;;4974779;28;20407;-59
2023/08/24 13:28:29;;;;;;;1135.13;999.90;;;;;;;;;;4994013;28;20121;-57
2023/08/24 13:30:56;;;;;;;1138.50;999.90;;;;;;;;;;4995893;28;20065;-58
2023/08/24 13:33:23;;;;;;;1137.63;999.90;;;;;;;;;;5001805;28;20581;-60
2023/08/24 13:35:50;;;;;;;1137.90;999.90;;;;;;;;;;4998144;28;20495;-57
2023/08/24 13:38:17;;;;;;;1128.63;999.90;;;;;;;;;;4996354;28;20137;-56
2023/08/24 13:40:44;;;;;;;1132.07;999.90;;;;;;;;;;4990251;28;20070;-58
2023/08/24 13:43:14;;;;;;;1140.47;999.90;;;;;;;;;;4999006;28;20048;-57
2023/08/24 13:45:41;;;;;;;1135.10;999.90;;;;;;;;;;4996488;28;20049;-57
2023/08/24 13:48:08;;;;;;;1132.00;999.90;;;;;;;;;;5002098;28;20045;-55